sensor_id;sensor_type;location;lat;lon;timestamp;P1;durP1;ratioP1;P2;durP2;ratioP2
757;SDS011;363;48.764;9.172;2022-09-27T00:00:34;1.17;;;1.08;;
757;SDS011;363;48.764;9.172;2022-09-27T00:03:01;1.50;;;1.10;;
757;SDS011;363;48.764;9.172;2022-09-27T00:05:27;0.80;;;0.73;;
757;SDS011;363;48.764;9.172;2022-09-27T00:07:54;0.80;;;0.80;;
757;SDS011;363;48.764;9.172;2022-09-27T00:10:20;1.52;;;1.00;;
757;SDS011;363;48.764;9.172;2022-09-27T00:12:45;1.67;;;1.00;;
757;SDS011;363;48.764;9.172;2022-09-27T00:15:12;1.05;;;0.95;;
757;SDS011;363;48.764;9.172;2022-09-27T00:17:38;1.33;;;0.80;;
757;SDS011;363;48.764;9.172;2022-09-27T00:20:05;1.10;;;1.00;;
757;SDS011;363;48.764;9.172;2022-09-27T00:22:33;3.55;;;0.90;;
757;SDS011;363;48.764;9.172;2022-09-27T00:25:00;1.25;;;0.80;;
757;SDS011;363;48.764;9.172;2022-09-27T00:27:25;0.80;;;0.80;;
757;SDS011;363;48.764;9.172;2022-09-27T00:29:51;0.82;;;0.80;;
757;SDS011;363;48.764;9.172;2022-09-27T00:32:18;0.80;;;0.70;;
757;SDS011;363;48.764;9.172;2022-09-27T00:34:43;0.70;;;0.70;;
757;SDS011;363;48.764;9.172;2022-09-27T00:37:09;0.93;;;0.80;;
757;SDS011;363;48.764;9.172;2022-09-27T00:39:36;2.08;;;1.90;;
757;SDS011;363;48.764;9.172;2022-09-27T00:42:04;1.00;;;0.80;;
757;SDS011;363;48.764;9.172;2022-09-27T00:49:27;1.20;;;0.80;;
757;SDS011;363;48.764;9.172;2022-09-27T00:52:01;0.88;;;0.77;;
757;SDS011;363;48.764;9.172;2022-09-27T00:54:32;1.98;;;0.63;;
757;SDS011;363;48.764;9.172;2022-09-27T00:57:00;1.35;;;0.70;;
757;SDS011;363;48.764;9.172;2022-09-27T01:01:59;0.80;;;0.80;;
757;SDS011;363;48.764;9.172;2022-09-27T01:04:26;1.38;;;0.80;;
757;SDS011;363;48.764;9.172;2022-09-27T01:06:54;0.80;;;0.80;;
757;SDS011;363;48.764;9.172;2022-09-27T01:09:19;1.40;;;0.90;;
757;SDS011;363;48.764;9.172;2022-09-27T01:11:47;1.15;;;0.70;;
757;SDS011;363;48.764;9.172;2022-09-27T01:14:31;1.25;;;0.75;;
757;SDS011;363;48.764;9.172;2022-09-27T01:20:14;0.80;;;0.80;;
757;SDS011;363;48.764;9.172;2022-09-27T01:31:35;0.70;;;0.60;;
757;SDS011;363;48.764;9.172;2022-09-27T01:39:38;1.23;;;0.90;;
757;SDS011;363;48.764;9.172;2022-09-27T01:42:28;0.93;;;0.80;;
757;SDS011;363;48.764;9.172;2022-09-27T01:45:12;0.80;;;0.80;;
757;SDS011;363;48.764;9.172;2022-09-27T01:47:51;0.90;;;0.88;;
757;SDS011;363;48.764;9.172;2022-09-27T01:50:40;1.08;;;0.90;;
757;SDS011;363;48.764;9.172;2022-09-27T01:53:22;1.00;;;0.90;;
757;SDS011;363;48.764;9.172;2022-09-27T01:55:57;0.80;;;0.80;;
757;SDS011;363;48.764;9.172;2022-09-27T01:58:32;0.85;;;0.80;;
757;SDS011;363;48.764;9.172;2022-09-27T02:01:04;0.70;;;0.60;;
757;SDS011;363;48.764;9.172;2022-09-27T02:03:35;0.80;;;0.70;;
757;SDS011;363;48.764;9.172;2022-09-27T02:06:12;1.75;;;0.73;;
757;SDS011;363;48.764;9.172;2022-09-27T02:08:44;0.80;;;0.80;;
757;SDS011;363;48.764;9.172;2022-09-27T02:11:15;0.70;;;0.70;;
757;SDS011;363;48.764;9.172;2022-09-27T02:16:34;0.88;;;0.88;;
757;SDS011;363;48.764;9.172;2022-09-27T02:22:21;1.00;;;0.70;;
757;SDS011;363;48.764;9.172;2022-09-27T02:25:19;0.90;;;0.70;;
757;SDS011;363;48.764;9.172;2022-09-27T02:30:40;0.70;;;0.60;;
757;SDS011;363;48.764;9.172;2022-09-27T02:33:06;1.80;;;0.80;;
757;SDS011;363;48.764;9.172;2022-09-27T02:35:33;1.02;;;0.90;;
757;SDS011;363;48.764;9.172;2022-09-27T02:38:00;1.77;;;0.77;;
757;SDS011;363;48.764;9.172;2022-09-27T02:40:35;1.40;;;0.60;;
757;SDS011;363;48.764;9.172;2022-09-27T02:43:10;1.20;;;0.70;;
757;SDS011;363;48.764;9.172;2022-09-27T02:45:48;0.90;;;0.73;;
757;SDS011;363;48.764;9.172;2022-09-27T02:54:26;1.05;;;0.68;;
757;SDS011;363;48.764;9.172;2022-09-27T02:57:27;2.80;;;0.57;;
757;SDS011;363;48.764;9.172;2022-09-27T03:00:19;1.30;;;0.80;;
757;SDS011;363;48.764;9.172;2022-09-27T03:05:21;1.15;;;0.73;;
757;SDS011;363;48.764;9.172;2022-09-27T03:07:50;1.50;;;0.70;;
757;SDS011;363;48.764;9.172;2022-09-27T03:10:17;1.10;;;0.80;;
757;SDS011;363;48.764;9.172;2022-09-27T03:12:44;1.45;;;0.60;;
757;SDS011;363;48.764;9.172;2022-09-27T03:15:10;1.73;;;0.60;;
757;SDS011;363;48.764;9.172;2022-09-27T03:17:36;0.73;;;0.70;;
757;SDS011;363;48.764;9.172;2022-09-27T03:20:02;0.80;;;0.60;;
757;SDS011;363;48.764;9.172;2022-09-27T03:22:28;2.55;;;1.08;;
757;SDS011;363;48.764;9.172;2022-09-27T03:24:53;0.90;;;0.70;;
757;SDS011;363;48.764;9.172;2022-09-27T03:27:19;0.80;;;0.73;;
757;SDS011;363;48.764;9.172;2022-09-27T03:29:44;1.27;;;0.70;;
757;SDS011;363;48.764;9.172;2022-09-27T03:32:10;1.63;;;0.80;;
757;SDS011;363;48.764;9.172;2022-09-27T03:34:36;1.67;;;1.07;;
757;SDS011;363;48.764;9.172;2022-09-27T03:37:02;0.93;;;0.80;;
757;SDS011;363;48.764;9.172;2022-09-27T03:39:27;0.90;;;0.80;;
757;SDS011;363;48.764;9.172;2022-09-27T03:41:53;0.80;;;0.70;;
757;SDS011;363;48.764;9.172;2022-09-27T03:44:20;1.25;;;0.80;;
757;SDS011;363;48.764;9.172;2022-09-27T03:46:46;1.10;;;1.00;;
757;SDS011;363;48.764;9.172;2022-09-27T03:49:12;1.67;;;1.10;;
757;SDS011;363;48.764;9.172;2022-09-27T03:51:37;1.00;;;0.90;;
757;SDS011;363;48.764;9.172;2022-09-27T03:54:06;1.93;;;1.00;;
757;SDS011;363;48.764;9.172;2022-09-27T03:56:32;1.65;;;1.00;;
757;SDS011;363;48.764;9.172;2022-09-27T03:58:57;1.33;;;1.23;;
757;SDS011;363;48.764;9.172;2022-09-27T04:01:23;2.00;;;1.17;;
757;SDS011;363;48.764;9.172;2022-09-27T04:03:50;1.20;;;1.10;;
757;SDS011;363;48.764;9.172;2022-09-27T04:06:16;2.23;;;1.20;;
757;SDS011;363;48.764;9.172;2022-09-27T04:08:43;1.90;;;1.30;;
757;SDS011;363;48.764;9.172;2022-09-27T04:11:09;3.42;;;1.95;;
757;SDS011;363;48.764;9.172;2022-09-27T04:13:34;4.13;;;1.90;;
757;SDS011;363;48.764;9.172;2022-09-27T04:16:01;2.85;;;1.50;;
757;SDS011;363;48.764;9.172;2022-09-27T04:18:27;3.42;;;1.60;;
757;SDS011;363;48.764;9.172;2022-09-27T04:20:53;2.55;;;1.70;;
757;SDS011;363;48.764;9.172;2022-09-27T04:23:20;1.77;;;1.65;;
757;SDS011;363;48.764;9.172;2022-09-27T04:25:46;2.13;;;1.50;;
757;SDS011;363;48.764;9.172;2022-09-27T04:28:11;3.73;;;1.70;;
757;SDS011;363;48.764;9.172;2022-09-27T04:30:39;5.13;;;2.10;;
757;SDS011;363;48.764;9.172;2022-09-27T04:33:05;3.40;;;3.10;;
757;SDS011;363;48.764;9.172;2022-09-27T04:35:31;4.33;;;1.87;;
757;SDS011;363;48.764;9.172;2022-09-27T04:38:15;6.00;;;2.10;;
757;SDS011;363;48.764;9.172;2022-09-27T04:40:44;1.88;;;1.38;;
757;SDS011;363;48.764;9.172;2022-09-27T04:43:13;2.45;;;1.50;;
757;SDS011;363;48.764;9.172;2022-09-27T04:45:38;1.80;;;1.40;;
757;SDS011;363;48.764;9.172;2022-09-27T04:48:04;3.50;;;2.00;;
757;SDS011;363;48.764;9.172;2022-09-27T04:50:30;2.80;;;1.80;;
757;SDS011;363;48.764;9.172;2022-09-27T04:52:56;5.00;;;1.80;;
757;SDS011;363;48.764;9.172;2022-09-27T04:55:22;2.00;;;1.40;;
757;SDS011;363;48.764;9.172;2022-09-27T04:57:48;2.27;;;2.07;;
757;SDS011;363;48.764;9.172;2022-09-27T05:00:14;2.15;;;1.95;;
757;SDS011;363;48.764;9.172;2022-09-27T05:02:42;2.50;;;1.95;;
757;SDS011;363;48.764;9.172;2022-09-27T05:05:12;2.40;;;1.70;;
757;SDS011;363;48.764;9.172;2022-09-27T05:07:38;3.13;;;1.85;;
757;SDS011;363;48.764;9.172;2022-09-27T05:10:04;5.40;;;1.90;;
757;SDS011;363;48.764;9.172;2022-09-27T05:12:32;3.63;;;1.67;;
757;SDS011;363;48.764;9.172;2022-09-27T05:14:58;2.38;;;1.75;;
757;SDS011;363;48.764;9.172;2022-09-27T05:17:24;1.93;;;1.57;;
757;SDS011;363;48.764;9.172;2022-09-27T05:19:50;2.23;;;1.53;;
757;SDS011;363;48.764;9.172;2022-09-27T05:22:16;5.75;;;3.10;;
757;SDS011;363;48.764;9.172;2022-09-27T05:24:42;5.63;;;2.60;;
757;SDS011;363;48.764;9.172;2022-09-27T05:27:14;4.50;;;2.07;;
757;SDS011;363;48.764;9.172;2022-09-27T05:29:44;2.85;;;2.28;;
757;SDS011;363;48.764;9.172;2022-09-27T05:32:11;6.10;;;2.60;;
757;SDS011;363;48.764;9.172;2022-09-27T05:34:36;6.67;;;5.50;;
757;SDS011;363;48.764;9.172;2022-09-27T05:37:02;2.80;;;2.00;;
757;SDS011;363;48.764;9.172;2022-09-27T05:39:28;2.70;;;2.10;;
757;SDS011;363;48.764;9.172;2022-09-27T05:41:54;7.03;;;2.25;;
757;SDS011;363;48.764;9.172;2022-09-27T05:44:20;2.95;;;1.98;;
757;SDS011;363;48.764;9.172;2022-09-27T05:46:46;5.53;;;2.60;;
757;SDS011;363;48.764;9.172;2022-09-27T05:49:12;3.50;;;1.93;;
757;SDS011;363;48.764;9.172;2022-09-27T05:51:37;4.90;;;2.00;;
757;SDS011;363;48.764;9.172;2022-09-27T05:54:04;3.70;;;2.45;;
757;SDS011;363;48.764;9.172;2022-09-27T05:56:30;1.67;;;1.43;;
757;SDS011;363;48.764;9.172;2022-09-27T05:58:56;1.80;;;1.70;;
757;SDS011;363;48.764;9.172;2022-09-27T06:01:22;3.03;;;2.00;;
757;SDS011;363;48.764;9.172;2022-09-27T06:03:48;2.90;;;1.80;;
757;SDS011;363;48.764;9.172;2022-09-27T06:06:15;3.40;;;2.20;;
757;SDS011;363;48.764;9.172;2022-09-27T06:08:41;4.73;;;3.60;;
757;SDS011;363;48.764;9.172;2022-09-27T06:11:10;2.70;;;1.90;;
757;SDS011;363;48.764;9.172;2022-09-27T06:13:37;2.00;;;1.80;;
757;SDS011;363;48.764;9.172;2022-09-27T06:16:04;1.60;;;1.50;;
757;SDS011;363;48.764;9.172;2022-09-27T06:18:31;3.45;;;2.03;;
757;SDS011;363;48.764;9.172;2022-09-27T06:20:58;2.25;;;1.90;;
757;SDS011;363;48.764;9.172;2022-09-27T06:23:27;1.70;;;1.60;;
757;SDS011;363;48.764;9.172;2022-09-27T06:25:59;2.97;;;1.90;;
757;SDS011;363;48.764;9.172;2022-09-27T06:28:46;2.58;;;1.98;;
757;SDS011;363;48.764;9.172;2022-09-27T06:31:12;2.30;;;1.60;;
757;SDS011;363;48.764;9.172;2022-09-27T06:33:38;2.90;;;1.52;;
757;SDS011;363;48.764;9.172;2022-09-27T06:36:04;3.83;;;2.07;;
757;SDS011;363;48.764;9.172;2022-09-27T06:38:31;1.65;;;1.10;;
757;SDS011;363;48.764;9.172;2022-09-27T06:41:01;3.70;;;1.45;;
757;SDS011;363;48.764;9.172;2022-09-27T06:43:28;1.20;;;1.10;;
757;SDS011;363;48.764;9.172;2022-09-27T06:45:54;1.55;;;1.30;;
757;SDS011;363;48.764;9.172;2022-09-27T06:48:20;2.73;;;1.50;;
757;SDS011;363;48.764;9.172;2022-09-27T06:50:46;1.52;;;1.20;;
757;SDS011;363;48.764;9.172;2022-09-27T06:53:14;1.23;;;1.10;;
757;SDS011;363;48.764;9.172;2022-09-27T06:55:40;2.30;;;2.10;;
757;SDS011;363;48.764;9.172;2022-09-27T06:58:08;1.25;;;1.15;;
757;SDS011;363;48.764;9.172;2022-09-27T07:00:53;1.75;;;1.10;;
757;SDS011;363;48.764;9.172;2022-09-27T07:03:19;4.07;;;1.30;;
757;SDS011;363;48.764;9.172;2022-09-27T07:05:54;1.10;;;1.10;;
757;SDS011;363;48.764;9.172;2022-09-27T07:08:21;1.23;;;1.05;;
757;SDS011;363;48.764;9.172;2022-09-27T07:10:47;1.27;;;1.02;;
757;SDS011;363;48.764;9.172;2022-09-27T07:13:14;7.20;;;2.90;;
757;SDS011;363;48.764;9.172;2022-09-27T07:15:41;1.50;;;1.17;;
757;SDS011;363;48.764;9.172;2022-09-27T07:18:07;1.55;;;1.35;;
757;SDS011;363;48.764;9.172;2022-09-27T07:20:33;1.35;;;1.10;;
757;SDS011;363;48.764;9.172;2022-09-27T07:23:02;1.05;;;0.95;;
757;SDS011;363;48.764;9.172;2022-09-27T07:25:29;1.10;;;0.80;;
757;SDS011;363;48.764;9.172;2022-09-27T07:27:59;1.00;;;0.93;;
757;SDS011;363;48.764;9.172;2022-09-27T07:30:26;2.83;;;0.82;;
757;SDS011;363;48.764;9.172;2022-09-27T07:32:55;4.80;;;2.33;;
757;SDS011;363;48.764;9.172;2022-09-27T07:35:23;1.65;;;0.80;;
757;SDS011;363;48.764;9.172;2022-09-27T07:37:49;1.00;;;0.77;;
757;SDS011;363;48.764;9.172;2022-09-27T07:40:14;1.47;;;0.70;;
757;SDS011;363;48.764;9.172;2022-09-27T07:42:40;0.90;;;0.70;;
757;SDS011;363;48.764;9.172;2022-09-27T07:45:06;0.80;;;0.80;;
757;SDS011;363;48.764;9.172;2022-09-27T07:47:32;0.93;;;0.73;;
757;SDS011;363;48.764;9.172;2022-09-27T07:49:58;1.37;;;0.70;;
757;SDS011;363;48.764;9.172;2022-09-27T07:52:24;1.77;;;1.27;;
757;SDS011;363;48.764;9.172;2022-09-27T07:54:50;1.00;;;0.80;;
757;SDS011;363;48.764;9.172;2022-09-27T07:57:15;1.33;;;0.90;;
757;SDS011;363;48.764;9.172;2022-09-27T07:59:41;1.00;;;0.70;;
757;SDS011;363;48.764;9.172;2022-09-27T08:02:11;1.48;;;1.10;;
757;SDS011;363;48.764;9.172;2022-09-27T08:04:39;0.98;;;0.70;;
757;SDS011;363;48.764;9.172;2022-09-27T08:07:07;0.93;;;0.82;;
757;SDS011;363;48.764;9.172;2022-09-27T08:09:35;1.73;;;1.10;;
757;SDS011;363;48.764;9.172;2022-09-27T08:12:01;1.10;;;0.70;;
757;SDS011;363;48.764;9.172;2022-09-27T08:14:28;1.67;;;1.58;;
757;SDS011;363;48.764;9.172;2022-09-27T08:16:54;1.10;;;0.93;;
757;SDS011;363;48.764;9.172;2022-09-27T08:19:20;1.37;;;0.83;;
757;SDS011;363;48.764;9.172;2022-09-27T08:21:46;1.75;;;1.00;;
757;SDS011;363;48.764;9.172;2022-09-27T08:24:12;2.03;;;1.33;;
757;SDS011;363;48.764;9.172;2022-09-27T08:26:38;0.80;;;0.80;;
757;SDS011;363;48.764;9.172;2022-09-27T08:29:05;0.70;;;0.70;;
757;SDS011;363;48.764;9.172;2022-09-27T08:31:31;1.07;;;0.97;;
757;SDS011;363;48.764;9.172;2022-09-27T08:33:56;1.00;;;0.83;;
757;SDS011;363;48.764;9.172;2022-09-27T08:36:22;3.80;;;0.70;;
757;SDS011;363;48.764;9.172;2022-09-27T08:38:49;0.70;;;0.70;;
757;SDS011;363;48.764;9.172;2022-09-27T08:47:07;1.20;;;0.70;;
757;SDS011;363;48.764;9.172;2022-09-27T08:49:38;3.17;;;1.00;;
757;SDS011;363;48.764;9.172;2022-09-27T08:52:21;1.10;;;1.00;;
757;SDS011;363;48.764;9.172;2022-09-27T08:54:57;1.75;;;0.80;;
757;SDS011;363;48.764;9.172;2022-09-27T08:57:27;0.95;;;0.80;;
757;SDS011;363;48.764;9.172;2022-09-27T09:00:10;0.82;;;0.60;;
757;SDS011;363;48.764;9.172;2022-09-27T09:02:37;1.00;;;0.80;;
757;SDS011;363;48.764;9.172;2022-09-27T09:05:10;0.88;;;0.80;;
757;SDS011;363;48.764;9.172;2022-09-27T09:23:25;2.33;;;1.02;;
757;SDS011;363;48.764;9.172;2022-09-27T09:26:08;3.10;;;1.02;;
757;SDS011;363;48.764;9.172;2022-09-27T09:31:41;1.48;;;0.90;;
757;SDS011;363;48.764;9.172;2022-09-27T09:36:54;1.65;;;0.80;;
757;SDS011;363;48.764;9.172;2022-09-27T09:42:27;0.70;;;0.70;;
757;SDS011;363;48.764;9.172;2022-09-27T09:50:35;2.10;;;0.85;;
757;SDS011;363;48.764;9.172;2022-09-27T09:53:15;1.27;;;0.90;;
757;SDS011;363;48.764;9.172;2022-09-27T09:55:42;1.33;;;0.90;;
757;SDS011;363;48.764;9.172;2022-09-27T10:00:53;1.33;;;1.08;;
757;SDS011;363;48.764;9.172;2022-09-27T10:03:24;0.93;;;0.93;;
757;SDS011;363;48.764;9.172;2022-09-27T10:05:51;1.30;;;1.13;;
757;SDS011;363;48.764;9.172;2022-09-27T10:08:20;1.60;;;1.40;;
757;SDS011;363;48.764;9.172;2022-09-27T10:10:48;1.60;;;1.20;;
757;SDS011;363;48.764;9.172;2022-09-27T10:13:15;1.48;;;1.23;;
757;SDS011;363;48.764;9.172;2022-09-27T10:15:43;2.33;;;1.23;;
757;SDS011;363;48.764;9.172;2022-09-27T10:18:21;2.42;;;1.50;;
757;SDS011;363;48.764;9.172;2022-09-27T10:20:49;1.17;;;1.08;;
757;SDS011;363;48.764;9.172;2022-09-27T10:23:20;1.88;;;1.73;;
757;SDS011;363;48.764;9.172;2022-09-27T10:25:52;1.65;;;1.23;;
757;SDS011;363;48.764;9.172;2022-09-27T10:31:01;2.10;;;1.50;;
757;SDS011;363;48.764;9.172;2022-09-27T10:33:30;1.27;;;1.08;;
757;SDS011;363;48.764;9.172;2022-09-27T10:35:56;1.42;;;1.00;;
757;SDS011;363;48.764;9.172;2022-09-27T10:38:25;1.42;;;1.10;;
757;SDS011;363;48.764;9.172;2022-09-27T10:40:53;1.25;;;1.15;;
757;SDS011;363;48.764;9.172;2022-09-27T10:43:24;2.58;;;1.40;;
757;SDS011;363;48.764;9.172;2022-09-27T10:52:05;1.88;;;1.10;;
757;SDS011;363;48.764;9.172;2022-09-27T10:54:38;1.98;;;1.05;;
757;SDS011;363;48.764;9.172;2022-09-27T10:57:28;1.80;;;1.60;;
757;SDS011;363;48.764;9.172;2022-09-27T10:59:55;2.40;;;1.35;;
757;SDS011;363;48.764;9.172;2022-09-27T11:02:43;1.30;;;1.20;;
757;SDS011;363;48.764;9.172;2022-09-27T11:10:30;0.90;;;0.90;;
757;SDS011;363;48.764;9.172;2022-09-27T11:15:41;1.83;;;1.20;;
757;SDS011;363;48.764;9.172;2022-09-27T11:30:29;0.82;;;0.77;;
757;SDS011;363;48.764;9.172;2022-09-27T11:42:08;1.00;;;0.80;;
757;SDS011;363;48.764;9.172;2022-09-27T11:47:15;0.70;;;0.63;;
757;SDS011;363;48.764;9.172;2022-09-27T11:55:18;1.60;;;0.95;;
757;SDS011;363;48.764;9.172;2022-09-27T12:03:42;1.23;;;1.13;;
757;SDS011;363;48.764;9.172;2022-09-27T12:06:16;1.00;;;0.90;;
757;SDS011;363;48.764;9.172;2022-09-27T12:09:11;1.23;;;1.00;;
757;SDS011;363;48.764;9.172;2022-09-27T12:12:00;1.20;;;0.80;;
757;SDS011;363;48.764;9.172;2022-09-27T12:16:57;1.25;;;0.82;;
757;SDS011;363;48.764;9.172;2022-09-27T12:19:27;1.33;;;0.93;;
757;SDS011;363;48.764;9.172;2022-09-27T12:21:58;0.80;;;0.60;;
757;SDS011;363;48.764;9.172;2022-09-27T12:24:28;2.88;;;0.75;;
757;SDS011;363;48.764;9.172;2022-09-27T12:26:56;2.70;;;0.90;;
757;SDS011;363;48.764;9.172;2022-09-27T12:29:34;1.10;;;1.00;;
757;SDS011;363;48.764;9.172;2022-09-27T12:32:05;1.55;;;0.77;;
757;SDS011;363;48.764;9.172;2022-09-27T12:34:51;1.15;;;1.05;;
757;SDS011;363;48.764;9.172;2022-09-27T12:51:08;1.10;;;0.77;;
757;SDS011;363;48.764;9.172;2022-09-27T12:53:40;1.55;;;1.00;;
757;SDS011;363;48.764;9.172;2022-09-27T12:59:08;2.75;;;1.00;;
757;SDS011;363;48.764;9.172;2022-09-27T13:01:47;1.30;;;1.10;;
757;SDS011;363;48.764;9.172;2022-09-27T13:12:38;1.13;;;1.02;;
757;SDS011;363;48.764;9.172;2022-09-27T13:17:53;1.92;;;1.75;;
757;SDS011;363;48.764;9.172;2022-09-27T13:22:56;1.65;;;1.55;;
757;SDS011;363;48.764;9.172;2022-09-27T13:30:53;1.10;;;1.00;;
757;SDS011;363;48.764;9.172;2022-09-27T13:33:21;2.72;;;1.40;;
757;SDS011;363;48.764;9.172;2022-09-27T13:36:35;1.25;;;1.15;;
757;SDS011;363;48.764;9.172;2022-09-27T13:47:21;2.08;;;0.90;;
757;SDS011;363;48.764;9.172;2022-09-27T13:49:56;1.15;;;0.95;;
757;SDS011;363;48.764;9.172;2022-09-27T13:54:58;1.80;;;1.45;;
757;SDS011;363;48.764;9.172;2022-09-27T14:05:12;1.10;;;1.00;;
757;SDS011;363;48.764;9.172;2022-09-27T14:07:44;2.08;;;1.10;;
757;SDS011;363;48.764;9.172;2022-09-27T14:10:15;1.40;;;1.30;;
757;SDS011;363;48.764;9.172;2022-09-27T14:12:45;1.48;;;1.35;;
757;SDS011;363;48.764;9.172;2022-09-27T14:15:16;1.88;;;1.30;;
757;SDS011;363;48.764;9.172;2022-09-27T14:17:45;2.88;;;2.30;;
757;SDS011;363;48.764;9.172;2022-09-27T14:22:57;1.33;;;1.10;;
757;SDS011;363;48.764;9.172;2022-09-27T14:25:23;1.05;;;0.98;;
757;SDS011;363;48.764;9.172;2022-09-27T14:27:49;1.23;;;1.10;;
757;SDS011;363;48.764;9.172;2022-09-27T14:30:20;1.10;;;0.93;;
757;SDS011;363;48.764;9.172;2022-09-27T14:32:48;1.75;;;1.58;;
757;SDS011;363;48.764;9.172;2022-09-27T14:35:28;1.63;;;1.15;;
757;SDS011;363;48.764;9.172;2022-09-27T14:38:15;1.65;;;1.55;;
757;SDS011;363;48.764;9.172;2022-09-27T14:40:54;1.70;;;1.60;;
757;SDS011;363;48.764;9.172;2022-09-27T14:43:23;1.70;;;1.30;;
757;SDS011;363;48.764;9.172;2022-09-27T14:45:51;1.65;;;1.10;;
757;SDS011;363;48.764;9.172;2022-09-27T14:48:32;1.20;;;1.10;;
757;SDS011;363;48.764;9.172;2022-09-27T14:53:34;0.90;;;0.80;;
757;SDS011;363;48.764;9.172;2022-09-27T14:56:05;1.58;;;1.17;;
757;SDS011;363;48.764;9.172;2022-09-27T14:58:32;1.20;;;1.10;;
757;SDS011;363;48.764;9.172;2022-09-27T15:00:58;1.60;;;1.02;;
757;SDS011;363;48.764;9.172;2022-09-27T15:03:28;0.80;;;0.70;;
757;SDS011;363;48.764;9.172;2022-09-27T15:05:56;0.80;;;0.75;;
757;SDS011;363;48.764;9.172;2022-09-27T15:08:29;1.73;;;1.33;;
757;SDS011;363;48.764;9.172;2022-09-27T15:10:57;1.60;;;1.15;;
757;SDS011;363;48.764;9.172;2022-09-27T15:13:23;1.42;;;1.20;;
757;SDS011;363;48.764;9.172;2022-09-27T15:15:50;1.80;;;1.70;;
757;SDS011;363;48.764;9.172;2022-09-27T15:21:01;3.30;;;1.00;;
757;SDS011;363;48.764;9.172;2022-09-27T15:23:29;1.63;;;1.52;;
757;SDS011;363;48.764;9.172;2022-09-27T15:26:20;2.17;;;1.85;;
757;SDS011;363;48.764;9.172;2022-09-27T15:28:48;2.10;;;2.00;;
757;SDS011;363;48.764;9.172;2022-09-27T15:31:28;2.22;;;1.52;;
757;SDS011;363;48.764;9.172;2022-09-27T15:33:55;2.25;;;1.70;;
757;SDS011;363;48.764;9.172;2022-09-27T15:39:17;1.60;;;1.50;;
757;SDS011;363;48.764;9.172;2022-09-27T15:42:04;2.03;;;1.35;;
757;SDS011;363;48.764;9.172;2022-09-27T15:44:36;1.95;;;1.85;;
757;SDS011;363;48.764;9.172;2022-09-27T15:52:46;1.17;;;0.90;;
757;SDS011;363;48.764;9.172;2022-09-27T15:55:12;3.55;;;1.50;;
757;SDS011;363;48.764;9.172;2022-09-27T15:57:40;2.90;;;1.10;;
757;SDS011;363;48.764;9.172;2022-09-27T16:00:10;2.53;;;2.25;;
757;SDS011;363;48.764;9.172;2022-09-27T16:02:38;4.93;;;1.20;;
757;SDS011;363;48.764;9.172;2022-09-27T16:05:03;1.33;;;1.00;;
757;SDS011;363;48.764;9.172;2022-09-27T16:07:29;1.90;;;1.60;;
757;SDS011;363;48.764;9.172;2022-09-27T16:09:55;1.30;;;1.20;;
757;SDS011;363;48.764;9.172;2022-09-27T16:12:21;2.20;;;1.67;;
757;SDS011;363;48.764;9.172;2022-09-27T16:14:46;1.60;;;1.50;;
757;SDS011;363;48.764;9.172;2022-09-27T16:17:12;1.40;;;1.30;;
757;SDS011;363;48.764;9.172;2022-09-27T16:19:38;1.85;;;1.30;;
757;SDS011;363;48.764;9.172;2022-09-27T16:22:04;1.70;;;1.60;;
757;SDS011;363;48.764;9.172;2022-09-27T16:24:30;3.10;;;1.87;;
757;SDS011;363;48.764;9.172;2022-09-27T16:26:56;2.40;;;1.60;;
757;SDS011;363;48.764;9.172;2022-09-27T16:29:23;1.80;;;1.15;;
757;SDS011;363;48.764;9.172;2022-09-27T16:31:48;2.07;;;1.27;;
757;SDS011;363;48.764;9.172;2022-09-27T16:34:15;1.30;;;1.13;;
757;SDS011;363;48.764;9.172;2022-09-27T16:36:41;1.60;;;0.95;;
757;SDS011;363;48.764;9.172;2022-09-27T16:39:08;1.27;;;0.80;;
757;SDS011;363;48.764;9.172;2022-09-27T16:41:36;2.45;;;1.05;;
757;SDS011;363;48.764;9.172;2022-09-27T16:44:05;1.73;;;0.80;;
757;SDS011;363;48.764;9.172;2022-09-27T16:46:32;1.63;;;1.10;;
757;SDS011;363;48.764;9.172;2022-09-27T16:48:59;1.20;;;0.85;;
757;SDS011;363;48.764;9.172;2022-09-27T16:51:25;2.13;;;0.93;;
757;SDS011;363;48.764;9.172;2022-09-27T16:54:09;1.70;;;1.40;;
757;SDS011;363;48.764;9.172;2022-09-27T16:56:36;4.50;;;1.75;;
757;SDS011;363;48.764;9.172;2022-09-27T16:59:02;2.30;;;1.10;;
757;SDS011;363;48.764;9.172;2022-09-27T17:01:29;1.33;;;1.00;;
757;SDS011;363;48.764;9.172;2022-09-27T17:03:55;2.15;;;1.02;;
757;SDS011;363;48.764;9.172;2022-09-27T17:06:21;2.23;;;1.43;;
757;SDS011;363;48.764;9.172;2022-09-27T17:08:47;1.45;;;1.00;;
757;SDS011;363;48.764;9.172;2022-09-27T17:11:13;1.83;;;1.00;;
757;SDS011;363;48.764;9.172;2022-09-27T17:13:41;1.98;;;1.20;;
757;SDS011;363;48.764;9.172;2022-09-27T17:16:07;2.10;;;1.42;;
757;SDS011;363;48.764;9.172;2022-09-27T17:18:34;1.67;;;1.00;;
757;SDS011;363;48.764;9.172;2022-09-27T17:21:01;0.80;;;0.80;;
757;SDS011;363;48.764;9.172;2022-09-27T17:23:31;2.55;;;1.00;;
757;SDS011;363;48.764;9.172;2022-09-27T17:26:07;4.70;;;1.33;;
757;SDS011;363;48.764;9.172;2022-09-27T17:28:44;1.15;;;0.70;;
757;SDS011;363;48.764;9.172;2022-09-27T17:31:10;0.82;;;0.80;;
757;SDS011;363;48.764;9.172;2022-09-27T17:33:40;2.95;;;1.27;;
757;SDS011;363;48.764;9.172;2022-09-27T17:36:14;1.17;;;1.08;;
757;SDS011;363;48.764;9.172;2022-09-27T17:38:41;1.85;;;1.10;;
757;SDS011;363;48.764;9.172;2022-09-27T17:41:08;1.73;;;0.80;;
757;SDS011;363;48.764;9.172;2022-09-27T17:43:39;1.00;;;0.80;;
757;SDS011;363;48.764;9.172;2022-09-27T17:46:13;1.35;;;1.25;;
757;SDS011;363;48.764;9.172;2022-09-27T17:48:40;1.55;;;1.10;;
757;SDS011;363;48.764;9.172;2022-09-27T17:51:24;1.17;;;1.05;;
757;SDS011;363;48.764;9.172;2022-09-27T17:53:50;1.43;;;1.07;;
757;SDS011;363;48.764;9.172;2022-09-27T17:56:16;1.33;;;1.17;;
757;SDS011;363;48.764;9.172;2022-09-27T17:58:51;2.10;;;1.20;;
757;SDS011;363;48.764;9.172;2022-09-27T18:01:20;2.40;;;1.35;;
757;SDS011;363;48.764;9.172;2022-09-27T18:03:46;1.98;;;1.25;;
757;SDS011;363;48.764;9.172;2022-09-27T18:06:13;2.90;;;1.20;;
757;SDS011;363;48.764;9.172;2022-09-27T18:08:42;2.90;;;1.27;;
757;SDS011;363;48.764;9.172;2022-09-27T18:11:09;1.58;;;1.48;;
757;SDS011;363;48.764;9.172;2022-09-27T18:13:37;2.08;;;1.83;;
757;SDS011;363;48.764;9.172;2022-09-27T18:18:33;1.20;;;1.10;;
757;SDS011;363;48.764;9.172;2022-09-27T18:21:06;1.25;;;1.10;;
757;SDS011;363;48.764;9.172;2022-09-27T18:23:37;1.10;;;1.00;;
757;SDS011;363;48.764;9.172;2022-09-27T18:26:07;1.00;;;0.90;;
757;SDS011;363;48.764;9.172;2022-09-27T18:28:42;1.77;;;1.10;;
757;SDS011;363;48.764;9.172;2022-09-27T18:31:12;1.00;;;0.90;;
757;SDS011;363;48.764;9.172;2022-09-27T18:33:39;1.10;;;1.00;;
757;SDS011;363;48.764;9.172;2022-09-27T18:36:06;1.10;;;0.97;;
757;SDS011;363;48.764;9.172;2022-09-27T18:38:36;1.13;;;1.02;;
757;SDS011;363;48.764;9.172;2022-09-27T18:41:03;1.08;;;0.98;;
757;SDS011;363;48.764;9.172;2022-09-27T18:43:33;2.00;;;1.77;;
757;SDS011;363;48.764;9.172;2022-09-27T18:46:00;1.90;;;0.93;;
757;SDS011;363;48.764;9.172;2022-09-27T18:48:26;1.15;;;1.00;;
757;SDS011;363;48.764;9.172;2022-09-27T18:50:52;0.90;;;0.80;;
757;SDS011;363;48.764;9.172;2022-09-27T18:53:17;1.63;;;1.10;;
757;SDS011;363;48.764;9.172;2022-09-27T18:55:43;1.57;;;1.10;;
757;SDS011;363;48.764;9.172;2022-09-27T18:58:08;2.73;;;0.90;;
757;SDS011;363;48.764;9.172;2022-09-27T19:00:38;1.05;;;0.95;;
757;SDS011;363;48.764;9.172;2022-09-27T19:03:04;1.10;;;1.00;;
757;SDS011;363;48.764;9.172;2022-09-27T19:05:29;1.77;;;0.90;;
757;SDS011;363;48.764;9.172;2022-09-27T19:07:55;1.10;;;1.00;;
757;SDS011;363;48.764;9.172;2022-09-27T19:10:21;3.60;;;1.10;;
757;SDS011;363;48.764;9.172;2022-09-27T19:12:46;1.03;;;0.73;;
757;SDS011;363;48.764;9.172;2022-09-27T19:15:12;2.70;;;0.70;;
757;SDS011;363;48.764;9.172;2022-09-27T19:17:37;1.03;;;0.80;;
757;SDS011;363;48.764;9.172;2022-09-27T19:20:03;1.00;;;0.90;;
757;SDS011;363;48.764;9.172;2022-09-27T19:22:31;1.00;;;0.90;;
757;SDS011;363;48.764;9.172;2022-09-27T19:24:57;0.90;;;0.90;;
757;SDS011;363;48.764;9.172;2022-09-27T19:27:22;1.80;;;0.90;;